Wetterdaten: Woche 02.03.09 - 08.03.09 (KW10)
Datum Zeit Temp. A. Feuchte A. Luftdruck Regen Wind Richtung Taupunkt Windchill Windben
02.03.2009 00:00 4,7 C 88 % 1014,6 hPa 0,0 l/m 0,3 km/h SO 2,8 C 4,7 C 2,4 km/h
02.03.2009 01:00 4,4 C 88 % 1014,7 hPa 0,0 l/m 1,9 km/h O 2,7 C 4,4 C 5,2 km/h
02.03.2009 02:00 4,2 C 89 % 1014,5 hPa 0,0 l/m 0,7 km/h O 2,6 C 4,2 C 3,2 km/h
02.03.2009 03:00 4,0 C 90 % 1014,4 hPa 0,0 l/m 1,8 km/h O 2,5 C 4,0 C 5,2 km/h
02.03.2009 04:00 3,7 C 91 % 1014,4 hPa 0,0 l/m 0,8 km/h N 2,4 C 3,7 C 3,6 km/h
02.03.2009 05:00 3,6 C 91 % 1014,7 hPa 0,0 l/m 0,8 km/h O 2,3 C 3,6 C 4,0 km/h
02.03.2009 06:00 3,4 C 92 % 1014,8 hPa 0,0 l/m 0,1 km/h N 2,2 C 3,4 C 0,8 km/h
02.03.2009 07:00 3,5 C 92 % 1015,1 hPa 0,0 l/m 0,0 km/h N 2,4 C 3,5 C 0,0 km/h
02.03.2009 08:00 3,9 C 92 % 1015,3 hPa 0,0 l/m 0,9 km/h NW 2,7 C 3,9 C 3,2 km/h
02.03.2009 09:00 4,1 C 92 % 1015,4 hPa 0,0 l/m 4,0 km/h N 2,9 C 4,1 C 7,6 km/h
02.03.2009 10:00 4,8 C 88 % 1015,5 hPa 0,0 l/m 2,0 km/h NO 2,9 C 4,8 C 5,6 km/h
02.03.2009 11:00 5,6 C 82 % 1015,6 hPa 0,0 l/m 2,9 km/h NO 2,7 C 5,6 C 7,2 km/h
02.03.2009 12:00 6,1 C 80 % 1015,4 hPa 0,0 l/m 3,5 km/h O-NO 3,0 C 6,1 C 8,0 km/h
02.03.2009 13:00 6,3 C 80 % 1015,2 hPa 0,0 l/m 4,3 km/h NO 3,2 C 6,3 C 8,9 km/h
02.03.2009 14:00 6,3 C 82 % 1015,2 hPa 0,0 l/m 3,5 km/h NO 3,3 C 6,3 C 7,6 km/h
02.03.2009 15:00 5,6 C 85 % 1015,4 hPa 0,0 l/m 3,7 km/h O-SO 3,3 C 5,6 C 8,0 km/h
02.03.2009 16:00 5,2 C 87 % 1015,6 hPa 0,0 l/m 0,6 km/h O 3,3 C 5,2 C 4,0 km/h
02.03.2009 17:00 4,9 C 89 % 1016,0 hPa 0,0 l/m 1,0 km/h O 3,2 C 4,9 C 4,4 km/h
02.03.2009 18:00 4,7 C 89 % 1016,2 hPa 0,0 l/m 0,0 km/h N 3,0 C 4,7 C 1,2 km/h
02.03.2009 19:00 4,7 C 90 % 1016,4 hPa 0,0 l/m 0,0 km/h N 3,2 C 4,7 C 1,2 km/h
02.03.2009 20:00 4,7 C 90 % 1016,3 hPa 0,0 l/m 0,0 km/h N 3,2 C 4,7 C 0,0 km/h
02.03.2009 21:00 4,6 C 90 % 1016,6 hPa 0,3 l/m 0,0 km/h N 3,1 C 4,6 C 0,4 km/h
02.03.2009 22:00 4,5 C 91 % 1016,6 hPa 0,3 l/m 0,0 km/h N 3,1 C 4,5 C 1,2 km/h
02.03.2009 23:00 4,3 C 91 % 1016,8 hPa 1,2 l/m 0,0 km/h N 2,9 C 4,3 C 0,0 km/h
03.03.2009 00:00 4,1 C 92 % 1016,9 hPa 0,6 l/m 0,0 km/h N 2,9 C 4,1 C 0,0 km/h
03.03.2009 01:00 4,0 C 92 % 1016,9 hPa 0,0 l/m 0,0 km/h N 2,8 C 4,0 C 0,0 km/h
03.03.2009 02:00 4,0 C 92 % 1016,7 hPa 0,6 l/m 0,0 km/h N 2,8 C 4,0 C 0,0 km/h
03.03.2009 03:00 4,0 C 92 % 1016,5 hPa 0,6 l/m 0,0 km/h N 2,8 C 4,0 C 0,0 km/h
03.03.2009 04:00 4,1 C 92 % 1016,5 hPa 0,0 l/m 0,0 km/h N 2,9 C 4,1 C 0,0 km/h
03.03.2009 05:00 3,9 C 92 % 1016,6 hPa 0,6 l/m 0,0 km/h N 2,8 C 3,9 C 0,0 km/h
03.03.2009 06:00 3,9 C 93 % 1016,7 hPa 0,6 l/m 0,0 km/h N 2,9 C 3,9 C 0,0 km/h
03.03.2009 07:00 4,2 C 93 % 1017,0 hPa 0,0 l/m 0,0 km/h N 3,2 C 4,2 C 0,0 km/h
03.03.2009 08:00 4,8 C 93 % 1017,1 hPa 0,0 l/m 0,0 km/h N 3,8 C 4,8 C 0,0 km/h
03.03.2009 09:00 5,9 C 94 % 1016,9 hPa 0,0 l/m 0,4 km/h NW 5,0 C 5,9 C 2,4 km/h
03.03.2009 10:00 7,6 C 90 % 1016,8 hPa 0,0 l/m 2,9 km/h NW 6,1 C 7,6 C 7,6 km/h
03.03.2009 11:00 7,9 C 87 % 1016,7 hPa 0,0 l/m 3,5 km/h N-NW 5,8 C 7,9 C 8,8 km/h
03.03.2009 12:00 8,2 C 83 % 1016,3 hPa 0,0 l/m 2,8 km/h N-NW 5,6 C 8,2 C 7,6 km/h
03.03.2009 13:00 9,2 C 79 % 1015,6 hPa 0,0 l/m 1,7 km/h NO 5,8 C 9,2 C 8,0 km/h
03.03.2009 14:00 9,2 C 78 % 1015,3 hPa 0,0 l/m 3,8 km/h N-NO 5,5 C 9,2 C 9,7 km/h
03.03.2009 15:00 9,3 C 78 % 1015,0 hPa 0,0 l/m 3,0 km/h NO 5,5 C 9,3 C 7,6 km/h
03.03.2009 16:00 8,8 C 78 % 1014,7 hPa 0,0 l/m 3,0 km/h O-NO 5,1 C 8,8 C 6,4 km/h
03.03.2009 17:00 8,3 C 81 % 1014,5 hPa 0,0 l/m 3,4 km/h O 5,2 C 8,3 C 6,8 km/h
03.03.2009 18:00 7,6 C 85 % 1014,5 hPa 0,0 l/m 0,8 km/h O-SO 5,3 C 7,6 C 3,6 km/h
03.03.2009 19:00 7,2 C 87 % 1014,1 hPa 0,0 l/m 1,1 km/h O 5,2 C 7,2 C 4,8 km/h
03.03.2009 20:00 6,8 C 89 % 1013,6 hPa 0,0 l/m 0,6 km/h N 5,2 C 6,8 C 4,4 km/h
03.03.2009 21:00 6,6 C 90 % 1013,2 hPa 0,0 l/m 0,4 km/h O 5,0 C 6,6 C 3,2 km/h
03.03.2009 22:00 6,3 C 90 % 1012,7 hPa 0,0 l/m 1,4 km/h O-SO 4,7 C 6,3 C 4,4 km/h
03.03.2009 23:00 5,9 C 91 % 1012,0 hPa 0,0 l/m 0,3 km/h N 4,5 C 5,9 C 2,8 km/h
04.03.2009 00:00 6,1 C 91 % 1011,0 hPa 0,0 l/m 0,6 km/h O-SO 4,8 C 6,1 C 4,8 km/h
04.03.2009 01:00 6,0 C 91 % 1010,3 hPa 0,0 l/m 1,1 km/h O-SO 4,7 C 6,0 C 5,2 km/h
04.03.2009 02:00 5,5 C 92 % 1009,3 hPa 0,0 l/m 1,4 km/h O-SO 4,2 C 5,5 C 6,4 km/h
04.03.2009 03:00 5,3 C 92 % 1008,5 hPa 0,0 l/m 0,6 km/h O-SO 4,1 C 5,3 C 4,4 km/h
04.03.2009 04:00 5,3 C 92 % 1007,7 hPa 0,0 l/m 1,7 km/h O-SO 4,1 C 5,3 C 5,6 km/h
04.03.2009 05:00 5,4 C 92 % 1006,9 hPa 0,0 l/m 1,1 km/h O 4,2 C 5,4 C 5,2 km/h
04.03.2009 06:00 5,3 C 92 % 1006,4 hPa 0,0 l/m 1,0 km/h O-SO 4,1 C 5,3 C 6,0 km/h
04.03.2009 07:00 5,6 C 92 % 1005,8 hPa 0,0 l/m 2,4 km/h O 4,4 C 5,6 C 7,6 km/h
04.03.2009 08:00 6,8 C 89 % 1005,0 hPa 0,0 l/m 3,1 km/h O-SO 5,2 C 6,8 C 9,6 km/h
04.03.2009 09:00 8,6 C 80 % 1003,8 hPa 0,0 l/m 5,0 km/h O-SO 5,3 C 8,6 C 20,5 km/h
04.03.2009 10:00 9,3 C 77 % 1003,0 hPa 0,0 l/m 6,3 km/h SO 5,5 C 8,9 C 22,5 km/h
04.03.2009 11:00 10,1 C 74 % 1002,1 hPa 0,0 l/m 7,1 km/h SO 5,6 C 9,5 C 22,5 km/h
04.03.2009 12:00 10,7 C 71 % 1001,5 hPa 0,0 l/m 7,4 km/h S-SO 5,7 C 10,0 C 26,2 km/h
04.03.2009 13:00 11,7 C 68 % 1000,3 hPa 0,0 l/m 7,6 km/h NO 6,0 C 10,9 C 25,8 km/h
04.03.2009 14:00 11,4 C 71 % 999,7 hPa 0,0 l/m 5,7 km/h S-SO 6,2 C 11,4 C 21,3 km/h
04.03.2009 15:00 10,8 C 74 % 998,8 hPa 0,0 l/m 5,8 km/h S-SO 6,3 C 10,8 C 18,9 km/h
04.03.2009 16:00 10,1 C 77 % 998,5 hPa 0,0 l/m 4,8 km/h S-SO 6,2 C 10,1 C 15,3 km/h
04.03.2009 17:00 9,7 C 78 % 998,0 hPa 0,0 l/m 5,3 km/h O 6,0 C 9,7 C 20,1 km/h
04.03.2009 18:00 8,8 C 83 % 997,7 hPa 0,0 l/m 5,3 km/h S-SO 6,0 C 8,8 C 16,5 km/h
04.03.2009 19:00 8,8 C 85 % 997,0 hPa 0,0 l/m 3,8 km/h SO 6,3 C 8,8 C 11,7 km/h
04.03.2009 20:00 8,9 C 84 % 996,4 hPa 0,0 l/m 4,2 km/h SO 6,4 C 8,9 C 11,7 km/h
04.03.2009 21:00 8,8 C 85 % 996,3 hPa 0,0 l/m 3,7 km/h SO 6,4 C 8,8 C 12,1 km/h
04.03.2009 22:00 8,5 C 85 % 995,6 hPa 0,0 l/m 3,9 km/h S 6,1 C 8,5 C 13,7 km/h
04.03.2009 23:00 8,3 C 85 % 994,6 hPa 0,0 l/m 4,7 km/h SO 5,9 C 8,3 C 17,3 km/h
05.03.2009 00:00 8,3 C 85 % 994,3 hPa 0,0 l/m 3,3 km/h SO 5,9 C 8,3 C 11,3 km/h
05.03.2009 01:00 8,3 C 86 % 993,7 hPa 0,0 l/m 1,3 km/h O-NO 6,1 C 8,3 C 6,4 km/h
05.03.2009 02:00 8,1 C 87 % 992,9 hPa 0,0 l/m 1,6 km/h O-SO 6,2 C 8,1 C 9,6 km/h
05.03.2009 03:00 8,1 C 87 % 992,0 hPa 0,0 l/m 2,0 km/h O 6,1 C 8,1 C 8,0 km/h
05.03.2009 04:00 7,8 C 87 % 991,6 hPa 0,0 l/m 0,9 km/h SO 5,8 C 7,8 C 7,2 km/h
05.03.2009 05:00 7,4 C 88 % 990,8 hPa 0,0 l/m 0,8 km/h O 5,5 C 7,4 C 5,6 km/h
05.03.2009 06:00 6,7 C 87 % 990,2 hPa 0,0 l/m 4,1 km/h O 4,7 C 6,7 C 12,5 km/h
05.03.2009 07:00 6,4 C 87 % 989,8 hPa 0,0 l/m 3,0 km/h O 4,4 C 6,4 C 10,5 km/h
05.03.2009 08:00 6,4 C 87 % 989,3 hPa 0,0 l/m 3,3 km/h O-NO 4,3 C 6,4 C 8,9 km/h
05.03.2009 09:00 6,4 C 87 % 988,4 hPa 0,0 l/m 6,5 km/h O-NO 4,4 C 6,2 C 16,5 km/h
05.03.2009 10:00 6,9 C 86 % 987,7 hPa 0,0 l/m 3,5 km/h O-SO 4,7 C 6,9 C 13,7 km/h
05.03.2009 11:00 7,0 C 87 % 986,8 hPa 0,6 l/m 7,0 km/h O 5,0 C 6,5 C 15,7 km/h
05.03.2009 12:00 6,6 C 91 % 985,8 hPa 1,2 l/m 7,3 km/h O 5,3 C 5,9 C 15,7 km/h
05.03.2009 13:00 6,6 C 92 % 984,8 hPa 0,6 l/m 7,3 km/h O-NO 5,4 C 5,9 C 17,3 km/h
05.03.2009 14:00 6,9 C 92 % 984,0 hPa 0,6 l/m 8,1 km/h O 5,7 C 5,5 C 18,9 km/h
05.03.2009 15:00 7,1 C 92 % 983,5 hPa 1,5 l/m 5,7 km/h O 5,8 C 6,8 C 12,1 km/h
05.03.2009 16:00 7,0 C 93 % 983,1 hPa 0,6 l/m 3,3 km/h O 5,9 C 7,0 C 6,8 km/h
05.03.2009 17:00 7,0 C 93 % 983,1 hPa 2,1 l/m 0,8 km/h O-SO 5,9 C 7,0 C 3,6 km/h
05.03.2009 18:00 6,8 C 93 % 983,4 hPa 0,9 l/m 1,9 km/h O-SO 5,7 C 6,8 C 5,6 km/h
05.03.2009 19:00 6,6 C 93 % 983,4 hPa 0,6 l/m 0,9 km/h O-SO 5,6 C 6,6 C 4,4 km/h
05.03.2009 20:00 6,6 C 93 % 983,8 hPa 0,6 l/m 0,9 km/h O-SO 5,6 C 6,6 C 5,2 km/h
05.03.2009 21:00 6,6 C 94 % 984,0 hPa 0,3 l/m 0,1 km/h N 5,7 C 6,6 C 2,4 km/h
05.03.2009 22:00 6,7 C 94 % 984,2 hPa 0,6 l/m 0,1 km/h N 5,8 C 6,7 C 2,4 km/h
05.03.2009 23:00 6,7 C 94 % 984,5 hPa 0,0 l/m 0,0 km/h N 5,8 C 6,7 C 0,8 km/h
06.03.2009 00:00 6,7 C 94 % 984,8 hPa 0,0 l/m 0,0 km/h N 5,8 C 6,7 C 1,2 km/h
06.03.2009 01:00 6,8 C 94 % 985,6 hPa 0,0 l/m 0,2 km/h N 5,9 C 6,8 C 4,0 km/h
06.03.2009 02:00 6,7 C 94 % 985,9 hPa 0,0 l/m 0,1 km/h N 5,8 C 6,7 C 1,6 km/h
06.03.2009 03:00 6,3 C 94 % 986,6 hPa 0,0 l/m 2,4 km/h NW 5,4 C 6,3 C 7,3 km/h
06.03.2009 04:00 5,1 C 93 % 987,0 hPa 0,0 l/m 3,5 km/h W 4,1 C 5,1 C 12,5 km/h
06.03.2009 05:00 5,2 C 88 % 987,3 hPa 0,0 l/m 6,0 km/h W 3,4 C 4,9 C 15,7 km/h
06.03.2009 06:00 5,3 C 83 % 988,2 hPa 0,6 l/m 7,6 km/h W 2,6 C 4,1 C 19,3 km/h
06.03.2009 07:00 4,8 C 85 % 989,0 hPa 1,2 l/m 5,8 km/h W-SW 2,5 C 4,6 C 17,7 km/h
06.03.2009 08:00 4,6 C 87 % 989,6 hPa 0,6 l/m 6,5 km/h W-NW 2,6 C 4,2 C 18,9 km/h
06.03.2009 09:00 4,6 C 86 % 990,5 hPa 0,9 l/m 6,7 km/h W 2,5 C 4,2 C 19,7 km/h
06.03.2009 10:00 4,5 C 87 % 991,3 hPa 0,6 l/m 8,1 km/h W-NW 2,5 C 3,0 C 22,9 km/h
06.03.2009 11:00 4,6 C 87 % 991,6 hPa 0,9 l/m 8,8 km/h W-SW 2,6 C 2,5 C 24,5 km/h
06.03.2009 12:00 4,7 C 86 % 992,1 hPa 0,3 l/m 8,2 km/h W-NW 2,6 C 3,1 C 20,9 km/h
06.03.2009 13:00 5,0 C 85 % 992,5 hPa 0,0 l/m 8,3 km/h W-SW 2,6 C 3,4 C 21,7 km/h
06.03.2009 14:00 5,5 C 81 % 992,7 hPa 0,0 l/m 8,9 km/h W 2,5 C 3,3 C 23,3 km/h
06.03.2009 15:00 6,0 C 77 % 992,7 hPa 0,0 l/m 12,3 km/h W 2,3 C 1,7 C 30,2 km/h
06.03.2009 16:00 6,1 C 76 % 993,0 hPa 0,0 l/m 11,3 km/h W 2,1 C 2,4 C 28,2 km/h
06.03.2009 17:00 5,8 C 75 % 993,9 hPa 0,0 l/m 10,1 km/h W-NW 1,8 C 2,9 C 28,6 km/h
06.03.2009 18:00 5,3 C 80 % 995,0 hPa 0,3 l/m 8,9 km/h NW 2,1 C 3,3 C 26,6 km/h
06.03.2009 19:00 4,8 C 82 % 995,9 hPa 0,6 l/m 11,3 km/h W-SW 2,1 C 1,0 C 29,4 km/h
06.03.2009 20:00 4,2 C 85 % 996,4 hPa 2,1 l/m 12,5 km/h W-SW 1,9 C -0,4 C 32,2 km/h
06.03.2009 21:00 3,8 C 87 % 996,7 hPa 2,4 l/m 13,7 km/h NW 1,8 C -1,6 C 34,2 km/h
06.03.2009 22:00 3,8 C 85 % 996,9 hPa 0,6 l/m 16,3 km/h W 1,6 C -3,0 C 35,8 km/h
06.03.2009 23:00 3,8 C 84 % 996,6 hPa 0,3 l/m 18,3 km/h W-NW 1,4 C -4,0 C 36,6 km/h
07.03.2009 00:00 4,1 C 82 % 997,3 hPa 0,0 l/m 16,4 km/h W-NW 1,3 C -2,8 C 36,6 km/h
07.03.2009 01:00 4,0 C 82 % 997,8 hPa 0,0 l/m 17,4 km/h W 1,3 C -3,3 C 39,0 km/h
07.03.2009 02:00 3,8 C 84 % 998,0 hPa 0,0 l/m 15,4 km/h W-NW 1,3 C -2,6 C 29,8 km/h
07.03.2009 03:00 3,8 C 84 % 997,9 hPa 0,0 l/m 16,5 km/h W-NW 1,2 C -3,2 C 33,8 km/h
07.03.2009 04:00 3,7 C 83 % 998,3 hPa 0,0 l/m 17,9 km/h NW 1,1 C -3,9 C 36,6 km/h
07.03.2009 05:00 3,6 C 84 % 998,6 hPa 0,6 l/m 15,1 km/h W-NW 1,2 C -2,7 C 33,4 km/h
07.03.2009 06:00 3,3 C 86 % 998,9 hPa 1,5 l/m 18,5 km/h NW 1,1 C -4,8 C 44,3 km/h
07.03.2009 07:00 3,1 C 87 % 999,7 hPa 2,1 l/m 18,6 km/h W 1,2 C -5,0 C 39,0 km/h
07.03.2009 08:00 3,1 C 87 % 1000,2 hPa 1,8 l/m 18,9 km/h W 1,2 C -5,1 C 39,4 km/h
07.03.2009 09:00 3,3 C 88 % 1000,9 hPa 1,8 l/m 18,7 km/h NW 1,5 C -4,8 C 38,2 km/h
07.03.2009 10:00 3,4 C 88 % 1001,4 hPa 2,7 l/m 20,2 km/h W 1,5 C -5,4 C 43,5 km/h
07.03.2009 11:00 3,3 C 88 % 1001,9 hPa 3,3 l/m 20,8 km/h W 1,5 C -5,6 C 39,4 km/h
07.03.2009 12:00 3,5 C 87 % 1002,0 hPa 3,3 l/m 22,6 km/h W-SW 1,5 C -6,1 C 49,9 km/h
07.03.2009 13:00 4,0 C 86 % 1002,2 hPa 1,2 l/m 24,8 km/h NW 1,9 C -6,2 C 55,1 km/h
07.03.2009 14:00 4,3 C 85 % 1002,7 hPa 0,9 l/m 23,8 km/h W-SW 2,0 C -5,6 C 49,9 km/h
07.03.2009 15:00 4,4 C 84 % 1003,6 hPa 0,6 l/m 24,4 km/h W-SW 1,8 C -5,6 C 44,3 km/h
07.03.2009 16:00 4,3 C 82 % 1004,6 hPa 0,0 l/m 21,7 km/h W-NW 1,5 C -4,8 C 45,9 km/h
07.03.2009 17:00 4,0 C 82 % 1005,5 hPa 0,3 l/m 19,0 km/h W-NW 1,2 C -4,1 C 41,4 km/h
07.03.2009 18:00 3,7 C 82 % 1006,5 hPa 0,3 l/m 20,3 km/h W-NW 0,9 C -5,0 C 45,1 km/h
07.03.2009 19:00 3,5 C 82 % 1007,4 hPa 0,3 l/m 18,8 km/h W-NW 0,7 C -4,6 C 40,6 km/h
07.03.2009 20:00 3,4 C 81 % 1008,3 hPa 0,0 l/m 18,6 km/h NW 0,5 C -4,6 C 41,4 km/h
07.03.2009 21:00 3,3 C 81 % 1008,9 hPa 0,0 l/m 19,9 km/h W-NW 0,4 C -5,3 C 42,3 km/h
07.03.2009 22:00 3,2 C 82 % 1009,4 hPa 0,3 l/m 17,7 km/h W-NW 0,5 C -4,5 C 37,8 km/h
07.03.2009 23:00 3,2 C 83 % 1009,5 hPa 0,3 l/m 18,3 km/h NW 0,5 C -4,8 C 37,4 km/h
08.03.2009 00:00 3,5 C 81 % 1009,9 hPa 0,0 l/m 16,9 km/h W 0,5 C -3,7 C 35,0 km/h
08.03.2009 01:00 3,7 C 80 % 1009,6 hPa 0,0 l/m 19,9 km/h NW 0,5 C -4,8 C 41,8 km/h
08.03.2009 02:00 3,8 C 77 % 1009,5 hPa 0,0 l/m 20,3 km/h NW 0,1 C -4,8 C 43,0 km/h
08.03.2009 03:00 3,9 C 76 % 1009,3 hPa 0,0 l/m 17,6 km/h W-NW -0,0 C -3,5 C 37,8 km/h
08.03.2009 04:00 4,1 C 74 % 1009,5 hPa 0,0 l/m 17,4 km/h W-NW -0,1 C -3,2 C 35,0 km/h
08.03.2009 05:00 4,2 C 74 % 1009,5 hPa 0,0 l/m 16,7 km/h W-NW -0,0 C -2,7 C 35,4 km/h
08.03.2009 06:00 4,1 C 72 % 1009,7 hPa 0,0 l/m 17,2 km/h W-SW -0,5 C -3,1 C 36,6 km/h
08.03.2009 07:00 4,1 C 71 % 1010,1 hPa 0,0 l/m 16,5 km/h W-NW -0,6 C -2,7 C 37,8 km/h
08.03.2009 08:00 5,2 C 66 % 1010,5 hPa 0,0 l/m 15,9 km/h W -0,7 C -1,1 C 37,0 km/h
08.03.2009 09:00 6,2 C 61 % 1010,3 hPa 0,0 l/m 15,4 km/h W-SW -0,8 C 0,4 C 33,4 km/h
08.03.2009 10:00 6,7 C 59 % 1010,3 hPa 0,0 l/m 15,8 km/h N-NW -0,7 C 0,8 C 37,4 km/h
08.03.2009 11:00 7,0 C 60 % 1010,5 hPa 0,0 l/m 13,7 km/h W -0,2 C 2,2 C 32,2 km/h
08.03.2009 12:00 6,9 C 59 % 1010,4 hPa 0,0 l/m 13,5 km/h W -0,5 C 2,2 C 32,2 km/h
08.03.2009 13:00 7,6 C 55 % 1009,5 hPa 0,0 l/m 15,5 km/h W -1,0 C 2,0 C 32,6 km/h
08.03.2009 14:00 8,0 C 55 % 1009,0 hPa 0,0 l/m 14,2 km/h W -0,6 C 3,2 C 32,6 km/h
08.03.2009 15:00 8,2 C 53 % 1008,0 hPa 0,0 l/m 12,1 km/h W -0,8 C 4,4 C 29,4 km/h
08.03.2009 16:00 8,1 C 54 % 1007,4 hPa 0,0 l/m 10,8 km/h W -0,7 C 5,1 C 26,5 km/h
08.03.2009 17:00 7,4 C 56 % 1007,1 hPa 0,0 l/m 10,5 km/h W-NW -0,7 C 4,6 C 26,5 km/h
08.03.2009 18:00 7,3 C 58 % 1006,9 hPa 0,0 l/m 6,4 km/h W-SW -0,5 C 6,9 C 18,5 km/h
08.03.2009 19:00 7,9 C 60 % 1005,9 hPa 0,0 l/m 12,0 km/h W 0,6 C 4,3 C 27,8 km/h
08.03.2009 20:00 7,7 C 66 % 1005,9 hPa 0,3 l/m 13,4 km/h W 1,6 C 3,2 C 31,4 km/h
08.03.2009 21:00 8,0 C 65 % 1005,8 hPa 0,0 l/m 14,8 km/h W-SW 1,7 C 2,8 C 32,6 km/h
08.03.2009 22:00 7,9 C 68 % 1005,0 hPa 0,0 l/m 16,3 km/h SW 2,3 C 2,0 C 33,4 km/h
08.03.2009 23:00 7,8 C 69 % 1005,3 hPa 0,0 l/m 9,9 km/h W-NW 2,3 C 5,2 C 22,1 km/h
Min-Datum _ 07.03.09 08.03.09 05.03.09 - 02.03.09 - 08.03.09 07.03.09 02.03.09
_ Min-Zeit 07:30 13:45 16:30 - 04:30 - 13:45 12:15 06:15
Minimum _ 2,9 C 51 % 983,0 hPa - 0,0 km/h - -1,7 C -6,9 C 0,0 km/h
Max-Datum _ 04.03.09 03.03.09 03.03.09 07.03.09 07.03.09 - 04.03.09 04.03.09 07.03.09
_ Max-Zeit 14:00 09:15 07:45 11:15 15:03 - 15:45 14:00 13:15
Maximum _ 12,0 C 94 % 1017,1 hPa 3,3 l/m 26,8 km/h
W-SW
- 6,6 C 11,9 C 62,8 km/h
W
Durchschnitt _ 5,9 C 83 % 1003,3 hPa #48,0 l/m 7,4 km/h W-NW 3,2 C 3,6 C 18,0 km/h